createdAt,value
2018-03-25T00:00:48.940Z,29.10
2018-03-25T00:03:16.324Z,25.10
2018-03-25T00:05:43.708Z,27.77
2018-03-25T00:08:11.096Z,26.60
2018-03-25T00:10:38.502Z,27.63
2018-03-25T00:13:05.873Z,25.07
2018-03-25T00:15:33.260Z,24.57
2018-03-25T00:18:00.655Z,28.73
2018-03-25T00:20:28.025Z,25.07
2018-03-25T00:22:55.416Z,25.20
2018-03-25T00:25:22.796Z,27.13
2018-03-25T00:27:50.173Z,25.70
2018-03-25T00:30:17.556Z,26.10
2018-03-25T00:32:44.941Z,24.60
2018-03-25T00:35:12.396Z,26.70
2018-03-25T00:37:39.784Z,25.60
2018-03-25T00:40:07.168Z,23.90
2018-03-25T00:42:34.561Z,26.60
2018-03-25T00:45:01.963Z,24.40
2018-03-25T00:47:29.353Z,24.97
2018-03-25T00:49:56.728Z,25.53
2018-03-25T00:52:24.129Z,26.73
2018-03-25T00:54:51.510Z,26.60
2018-03-25T00:57:18.888Z,24.83
2018-03-25T00:59:46.293Z,29.63
2018-03-25T01:02:13.673Z,27.73
2018-03-25T01:04:41.054Z,24.37
2018-03-25T01:07:08.440Z,26.60
2018-03-25T01:09:35.820Z,24.70
2018-03-25T01:12:03.224Z,24.47
2018-03-25T01:14:30.604Z,25.03
2018-03-25T01:16:57.991Z,24.30
2018-03-25T01:19:25.376Z,23.30
2018-03-25T01:21:52.753Z,24.53
2018-03-25T01:24:20.140Z,24.17
2018-03-25T01:26:47.520Z,29.40
2018-03-25T01:29:14.900Z,26.00
2018-03-25T01:31:42.298Z,24.13
2018-03-25T01:34:09.673Z,26.47
2018-03-25T01:36:37.064Z,25.70
2018-03-25T01:39:04.448Z,25.37
2018-03-25T01:41:31.828Z,27.03
2018-03-25T01:43:59.216Z,24.42
2018-03-25T01:46:26.609Z,25.70
2018-03-25T01:48:53.997Z,24.13
2018-03-25T01:51:21.389Z,24.55
2018-03-25T01:53:48.773Z,25.67
2018-03-25T01:56:16.159Z,27.40
2018-03-25T01:58:44.344Z,26.37
2018-03-25T02:01:11.748Z,26.80
2018-03-25T02:03:39.133Z,27.15
2018-03-25T02:06:06.519Z,29.23
2018-03-25T02:08:33.893Z,28.53
2018-03-25T02:11:01.285Z,25.57
2018-03-25T02:13:29.584Z,27.90
2018-03-25T02:15:56.985Z,25.47
2018-03-25T02:18:24.395Z,26.33
2018-03-25T02:20:51.777Z,26.13
2018-03-25T02:23:19.196Z,25.27
2018-03-25T02:25:46.595Z,26.53
2018-03-25T02:28:13.993Z,24.85
2018-03-25T02:30:41.418Z,25.80
2018-03-25T02:33:08.809Z,27.65
2018-03-25T02:35:36.225Z,28.70
2018-03-25T02:38:03.615Z,25.27
2018-03-25T02:40:31.025Z,27.62
2018-03-25T02:42:58.429Z,25.50
2018-03-25T02:45:25.832Z,25.20
2018-03-25T02:47:53.221Z,27.90
2018-03-25T02:50:20.632Z,28.73
2018-03-25T02:52:48.021Z,24.10
2018-03-25T02:55:15.423Z,27.62
2018-03-25T02:57:42.862Z,26.73
2018-03-25T03:00:10.287Z,28.17
2018-03-25T03:02:37.704Z,26.90
2018-03-25T03:05:05.084Z,24.70
2018-03-25T03:07:32.461Z,26.13
2018-03-25T03:09:59.874Z,23.77
2018-03-25T03:12:27.262Z,24.47
2018-03-25T03:14:54.649Z,24.20
2018-03-25T03:17:22.044Z,24.37
2018-03-25T03:19:49.432Z,25.37
2018-03-25T03:22:16.873Z,25.90
2018-03-25T03:24:44.284Z,27.87
2018-03-25T03:27:11.668Z,25.67
2018-03-25T03:29:39.083Z,24.58
2018-03-25T03:32:06.472Z,27.67
2018-03-25T03:34:33.872Z,25.48
2018-03-25T03:37:01.277Z,23.85
2018-03-25T03:39:28.677Z,25.27
2018-03-25T03:41:56.072Z,28.67
2018-03-25T03:44:23.472Z,27.73
2018-03-25T03:46:50.888Z,25.55
2018-03-25T03:49:18.284Z,25.23
2018-03-25T03:51:45.697Z,26.10
2018-03-25T03:54:13.089Z,26.75
2018-03-25T03:56:40.507Z,25.02
2018-03-25T03:59:07.922Z,24.48
2018-03-25T04:01:35.844Z,27.13
2018-03-25T04:04:03.247Z,24.52
2018-03-25T04:06:30.640Z,26.00
2018-03-25T04:08:58.052Z,24.30
2018-03-25T04:11:25.449Z,26.67
2018-03-25T04:13:52.860Z,23.83
2018-03-25T04:16:20.265Z,23.83
2018-03-25T04:18:47.678Z,26.02
2018-03-25T04:21:15.129Z,23.27
2018-03-25T04:23:42.500Z,23.92
2018-03-25T04:26:09.943Z,24.48
2018-03-25T04:28:37.342Z,25.37
2018-03-25T04:31:04.804Z,25.10
2018-03-25T04:33:32.184Z,26.90
2018-03-25T04:35:59.599Z,24.15
2018-03-25T04:38:27.000Z,24.60
2018-03-25T04:40:54.416Z,24.37
2018-03-25T04:43:21.821Z,24.40
2018-03-25T04:45:49.216Z,25.52
2018-03-25T04:48:16.613Z,25.65
2018-03-25T04:50:44.033Z,25.00
2018-03-25T04:53:11.428Z,24.55
2018-03-25T04:55:38.855Z,25.33
2018-03-25T04:58:06.242Z,24.98
2018-03-25T05:00:33.632Z,25.62
2018-03-25T05:03:01.028Z,25.15
2018-03-25T05:05:28.452Z,24.35
2018-03-25T05:07:55.864Z,26.17
2018-03-25T05:10:23.249Z,26.40
2018-03-25T05:12:50.648Z,25.62
2018-03-25T05:15:18.061Z,28.65
2018-03-25T05:17:45.484Z,25.52
2018-03-25T05:20:12.860Z,30.37
2018-03-25T05:22:40.300Z,28.02
2018-03-25T05:25:08.101Z,25.30
2018-03-25T05:27:35.600Z,24.10
2018-03-25T05:30:02.981Z,24.12
2018-03-25T05:32:30.378Z,24.63
2018-03-25T05:34:57.776Z,26.00
2018-03-25T05:37:25.161Z,27.65
2018-03-25T05:39:52.653Z,29.73
2018-03-25T05:42:20.033Z,25.42
2018-03-25T05:44:48.408Z,26.92
2018-03-25T05:47:15.803Z,26.20
2018-03-25T05:49:51.597Z,27.92
2018-03-25T05:52:19.793Z,26.25
2018-03-25T05:54:47.179Z,29.65
2018-03-25T05:57:14.585Z,27.10
2018-03-25T05:59:41.999Z,27.10
2018-03-25T06:02:09.387Z,25.98
2018-03-25T06:04:36.780Z,26.45
2018-03-25T06:07:04.180Z,29.50
2018-03-25T06:09:31.553Z,26.50
2018-03-25T06:11:58.940Z,25.55
2018-03-25T06:14:26.576Z,27.87
2018-03-25T06:16:53.984Z,25.83
2018-03-25T06:19:27.241Z,28.02
2018-03-25T06:21:54.620Z,28.90
2018-03-25T06:24:22.004Z,25.85
2018-03-25T06:26:49.404Z,31.45
2018-03-25T06:29:16.789Z,25.02
2018-03-25T06:31:44.243Z,31.08
2018-03-25T06:34:11.656Z,31.35
2018-03-25T06:36:39.076Z,30.42
2018-03-25T06:39:06.880Z,25.12
2018-03-25T06:41:34.251Z,24.95
2018-03-25T06:44:01.947Z,32.63
2018-03-25T06:46:29.348Z,25.08
2018-03-25T06:48:56.761Z,25.37
2018-03-25T06:51:24.213Z,24.70
2018-03-25T06:53:51.608Z,25.17
2018-03-25T06:56:18.993Z,26.45
2018-03-25T06:58:46.388Z,28.65
2018-03-25T07:01:13.789Z,29.65
2018-03-25T07:03:41.214Z,27.65
2018-03-25T07:06:08.616Z,27.40
2018-03-25T07:08:36.045Z,26.10
2018-03-25T07:11:03.444Z,27.20
2018-03-25T07:13:30.837Z,28.27
2018-03-25T07:15:58.252Z,24.73
2018-03-25T07:18:25.647Z,30.20
2018-03-25T07:20:53.048Z,27.65
2018-03-25T07:23:20.455Z,27.13
2018-03-25T07:25:47.848Z,29.80
2018-03-25T07:28:17.193Z,25.10
2018-03-25T07:30:44.601Z,26.10
2018-03-25T07:33:15.393Z,29.08
2018-03-25T07:35:48.638Z,29.77
2018-03-25T07:38:16.062Z,33.95
2018-03-25T07:40:43.469Z,30.23
2018-03-25T07:43:10.890Z,28.12
2018-03-25T07:45:38.389Z,31.50
2018-03-25T07:48:05.854Z,28.20
2018-03-25T07:50:33.232Z,28.50
2018-03-25T07:53:00.625Z,28.33
2018-03-25T07:55:28.013Z,27.93
2018-03-25T07:57:55.412Z,25.83
2018-03-25T08:00:22.864Z,29.73
2018-03-25T08:02:50.260Z,29.03
2018-03-25T08:05:17.676Z,25.40
2018-03-25T08:07:45.081Z,25.70
2018-03-25T08:10:12.453Z,27.60
2018-03-25T08:12:39.875Z,28.47
2018-03-25T08:15:07.288Z,26.63
2018-03-25T08:17:34.696Z,29.53
2018-03-25T08:20:02.069Z,26.40
2018-03-25T08:22:29.447Z,29.23
2018-03-25T08:24:56.829Z,27.70
2018-03-25T08:27:24.229Z,27.40
2018-03-25T08:29:51.654Z,30.47
2018-03-25T08:32:19.314Z,26.50
2018-03-25T08:34:46.733Z,27.97
2018-03-25T08:37:14.093Z,29.30
2018-03-25T08:39:41.482Z,29.70
2018-03-25T08:42:08.919Z,27.07
2018-03-25T08:44:36.317Z,29.37
2018-03-25T08:47:03.698Z,31.47
2018-03-25T08:49:31.088Z,26.27
2018-03-25T08:51:58.469Z,25.03
2018-03-25T08:54:25.868Z,28.97
2018-03-25T08:56:53.425Z,28.20
2018-03-25T08:59:20.836Z,26.40
2018-03-25T09:01:48.220Z,28.87
2018-03-25T09:04:15.597Z,26.47
2018-03-25T09:06:43.000Z,25.77
2018-03-25T09:09:10.460Z,26.67
2018-03-25T09:11:37.857Z,28.43
2018-03-25T09:14:05.254Z,25.83
2018-03-25T09:16:32.645Z,27.47
2018-03-25T09:19:00.031Z,27.13
2018-03-25T09:21:27.476Z,30.10
2018-03-25T09:23:54.894Z,29.80
2018-03-25T09:26:22.300Z,24.90
2018-03-25T09:28:49.684Z,25.60
2018-03-25T09:31:17.129Z,28.23
2018-03-25T09:33:44.543Z,24.57
2018-03-25T09:36:11.932Z,27.00
2018-03-25T09:38:44.352Z,24.43
2018-03-25T09:41:11.744Z,25.77
2018-03-25T09:43:39.185Z,26.97
2018-03-25T09:46:06.573Z,26.97
2018-03-25T09:48:33.957Z,28.47
2018-03-25T09:51:01.688Z,26.37
2018-03-25T09:53:29.076Z,25.57
2018-03-25T09:55:56.458Z,27.07
2018-03-25T09:58:23.868Z,26.27
2018-03-25T10:03:50.774Z,26.37
2018-03-25T10:06:18.109Z,26.50
2018-03-25T10:08:45.500Z,28.57
2018-03-25T10:11:12.889Z,25.80
2018-03-25T10:13:40.294Z,26.77
2018-03-25T10:16:07.708Z,24.10
2018-03-25T10:18:35.124Z,24.63
2018-03-25T10:21:02.521Z,25.10
2018-03-25T10:23:29.913Z,27.20
2018-03-25T10:28:30.282Z,28.10
2018-03-25T10:30:57.681Z,27.77
2018-03-25T10:33:25.088Z,31.23
2018-03-25T10:35:52.524Z,26.93
2018-03-25T10:38:19.937Z,26.97
2018-03-25T10:40:47.324Z,29.23
2018-03-25T10:43:14.705Z,26.13
2018-03-25T10:45:42.097Z,27.27
2018-03-25T10:48:09.512Z,28.50
2018-03-25T10:50:36.912Z,26.10
2018-03-25T10:53:04.296Z,26.53
2018-03-25T10:55:31.712Z,26.97
2018-03-25T10:57:59.088Z,25.87
2018-03-25T11:00:26.571Z,27.10
2018-03-25T11:02:53.949Z,28.57
2018-03-25T11:05:21.363Z,26.50
2018-03-25T11:07:48.749Z,25.67
2018-03-25T11:10:16.194Z,28.83
2018-03-25T11:12:43.607Z,24.97
2018-03-25T11:15:10.972Z,26.73
2018-03-25T11:17:38.373Z,28.93
2018-03-25T11:20:05.791Z,27.20
2018-03-25T11:22:33.182Z,27.03
2018-03-25T11:25:00.585Z,27.97
2018-03-25T11:27:27.974Z,28.93
2018-03-25T11:29:55.398Z,29.30
2018-03-25T11:32:22.785Z,28.93
2018-03-25T11:34:50.217Z,28.30
2018-03-25T11:37:17.600Z,27.10
2018-03-25T11:39:45.007Z,26.83
2018-03-25T11:42:12.434Z,27.37
2018-03-25T11:44:39.840Z,26.20
2018-03-25T11:47:07.233Z,28.57
2018-03-25T11:49:34.617Z,26.90
2018-03-25T11:52:02.334Z,27.10
2018-03-25T11:54:29.720Z,26.90
2018-03-25T11:56:57.100Z,29.57
2018-03-25T11:59:24.496Z,27.40
2018-03-25T12:01:51.876Z,27.83
2018-03-25T12:04:19.268Z,26.80
2018-03-25T12:06:46.653Z,26.93
2018-03-25T12:09:14.044Z,28.47
2018-03-25T12:11:41.433Z,27.70
2018-03-25T12:14:08.817Z,28.30
2018-03-25T12:16:36.205Z,29.70
2018-03-25T12:19:03.593Z,29.00
2018-03-25T12:21:30.977Z,27.43
2018-03-25T12:23:58.365Z,29.60
2018-03-25T12:26:25.756Z,28.57
2018-03-25T12:28:53.140Z,28.67
2018-03-25T12:31:20.533Z,27.77
2018-03-25T12:33:47.928Z,26.53
2018-03-25T12:36:15.315Z,28.33
2018-03-25T12:38:42.764Z,29.80
2018-03-25T12:41:10.101Z,31.33
2018-03-25T12:43:37.497Z,29.17
2018-03-25T12:46:04.880Z,29.53
2018-03-25T12:48:32.263Z,27.47
2018-03-25T12:50:59.650Z,29.37
2018-03-25T12:53:27.041Z,28.43
2018-03-25T12:55:54.449Z,29.03
2018-03-25T12:58:21.838Z,29.10
2018-03-25T13:00:49.229Z,29.67
2018-03-25T13:03:16.648Z,27.50
2018-03-25T13:05:44.044Z,29.53
2018-03-25T13:08:11.456Z,27.47
2018-03-25T13:10:39.096Z,29.97
2018-03-25T13:13:06.549Z,29.17
2018-03-25T13:15:33.932Z,28.80
2018-03-25T13:18:01.327Z,28.57
2018-03-25T13:20:28.714Z,28.10
2018-03-25T13:22:56.097Z,29.67
2018-03-25T13:25:23.484Z,28.50
2018-03-25T13:27:50.865Z,27.53
2018-03-25T13:30:18.254Z,28.13
2018-03-25T13:32:45.641Z,28.10
2018-03-25T13:35:13.044Z,26.40
2018-03-25T13:37:40.424Z,29.30
2018-03-25T13:40:07.808Z,25.53
2018-03-25T13:42:35.212Z,27.57
2018-03-25T13:45:02.596Z,28.70
2018-03-25T13:47:30.002Z,27.30
2018-03-25T13:49:57.379Z,26.80
2018-03-25T13:52:24.770Z,26.47
2018-03-25T13:54:52.233Z,27.10
2018-03-25T13:57:19.621Z,27.33
2018-03-25T13:59:47.035Z,28.20
2018-03-25T14:02:14.429Z,26.53
2018-03-25T14:04:41.842Z,26.60
2018-03-25T14:07:09.224Z,28.07
2018-03-25T14:09:36.641Z,28.23
2018-03-25T14:12:04.023Z,27.77
2018-03-25T14:14:31.445Z,26.90
2018-03-25T14:16:58.890Z,28.37
2018-03-25T14:19:26.272Z,27.77
2018-03-25T14:21:53.665Z,26.73
2018-03-25T14:24:22.085Z,26.73
2018-03-25T14:26:49.509Z,26.23
2018-03-25T14:29:16.880Z,26.43
2018-03-25T14:31:44.285Z,28.07
2018-03-25T14:34:11.677Z,26.20
2018-03-25T14:36:39.065Z,25.20
2018-03-25T14:39:06.452Z,24.43
2018-03-25T14:41:33.850Z,24.50
2018-03-25T14:44:11.224Z,25.20
2018-03-25T14:46:38.604Z,24.67
2018-03-25T14:49:06.000Z,25.10
2018-03-25T14:51:33.400Z,29.10
2018-03-25T14:54:00.785Z,26.10
2018-03-25T14:56:28.244Z,26.80
2018-03-25T14:58:55.574Z,26.83
2018-03-25T15:01:22.968Z,26.87
2018-03-25T15:03:50.353Z,27.03
2018-03-25T15:06:17.736Z,27.80
2018-03-25T15:08:45.124Z,30.40
2018-03-25T15:11:12.519Z,28.17
2018-03-25T15:13:39.907Z,30.50
2018-03-25T15:16:07.297Z,33.20
2018-03-25T15:18:34.694Z,27.90
2018-03-25T15:21:02.082Z,29.33
2018-03-25T15:23:29.470Z,27.33
2018-03-25T15:25:56.863Z,28.40
2018-03-25T15:28:25.179Z,28.97
2018-03-25T15:30:52.564Z,27.83
2018-03-25T15:33:19.950Z,28.63
2018-03-25T15:35:47.349Z,29.40
2018-03-25T15:38:14.736Z,32.20
2018-03-25T15:40:42.124Z,29.73
2018-03-25T15:43:09.516Z,30.73
2018-03-25T15:45:36.942Z,33.87
2018-03-25T15:48:04.288Z,30.30
2018-03-25T15:50:31.680Z,32.53
2018-03-25T15:52:59.097Z,33.43
2018-03-25T15:55:26.481Z,32.83
2018-03-25T15:57:53.899Z,33.33
2018-03-25T16:00:21.292Z,35.03
2018-03-25T16:02:48.685Z,33.77
2018-03-25T16:05:16.065Z,34.77
2018-03-25T16:07:43.454Z,34.73
2018-03-25T16:10:10.849Z,36.17
2018-03-25T16:12:38.228Z,36.07
2018-03-25T16:15:05.613Z,37.63
2018-03-25T16:17:33.328Z,38.93
2018-03-25T16:20:00.709Z,37.63
2018-03-25T16:22:28.122Z,36.37
2018-03-25T16:24:55.509Z,35.97
2018-03-25T16:27:22.893Z,38.20
2018-03-25T16:29:50.281Z,38.60
2018-03-25T16:32:17.937Z,37.93
2018-03-25T16:34:45.333Z,36.90
2018-03-25T16:37:12.718Z,38.27
2018-03-25T16:39:40.096Z,37.73
2018-03-25T16:42:07.481Z,37.77
2018-03-25T16:44:34.880Z,37.10
2018-03-25T16:47:02.260Z,37.23
2018-03-25T16:49:29.649Z,40.85
2018-03-25T16:51:57.038Z,39.87
2018-03-25T16:54:24.427Z,40.80
2018-03-25T16:56:51.829Z,39.87
2018-03-25T16:59:19.209Z,42.10
2018-03-25T17:01:46.606Z,40.10
2018-03-25T17:04:13.995Z,42.53
2018-03-25T17:06:41.385Z,38.17
2018-03-25T17:09:08.888Z,40.17
2018-03-25T17:11:36.281Z,42.40
2018-03-25T17:14:03.673Z,39.93
2018-03-25T17:16:31.067Z,37.80
2018-03-25T17:18:58.468Z,41.20
2018-03-25T17:21:25.850Z,42.80
2018-03-25T17:23:53.242Z,41.17
2018-03-25T17:26:20.633Z,40.43
2018-03-25T17:28:48.025Z,39.83
2018-03-25T17:31:15.423Z,39.50
2018-03-25T17:33:42.808Z,40.60
2018-03-25T17:36:10.520Z,41.30
2018-03-25T17:38:37.908Z,39.93
2018-03-25T17:41:05.297Z,40.43
2018-03-25T17:43:32.685Z,38.77
2018-03-25T17:46:00.062Z,43.17
2018-03-25T17:48:27.453Z,43.90
2018-03-25T17:50:54.832Z,44.50
2018-03-25T17:53:22.223Z,41.90
2018-03-25T17:55:49.631Z,43.00
2018-03-25T17:58:16.985Z,43.67
2018-03-25T18:00:44.377Z,45.57
2018-03-25T18:03:11.769Z,43.03
2018-03-25T18:05:39.201Z,41.53
2018-03-25T18:08:06.533Z,42.63
2018-03-25T18:10:33.926Z,40.70
2018-03-25T18:13:01.309Z,44.57
2018-03-25T18:15:28.697Z,46.30
2018-03-25T18:17:56.100Z,45.10
2018-03-25T18:20:23.480Z,43.77
2018-03-25T18:22:50.872Z,43.80
2018-03-25T18:25:18.264Z,45.07
2018-03-25T18:27:46.096Z,44.93
2018-03-25T18:30:13.501Z,42.53
2018-03-25T18:32:40.877Z,46.93
2018-03-25T18:35:08.273Z,51.97
2018-03-25T18:37:35.656Z,44.73
2018-03-25T18:40:03.044Z,47.17
2018-03-25T18:42:30.425Z,46.63
2018-03-25T18:44:57.825Z,45.23
2018-03-25T18:47:25.212Z,44.70
2018-03-25T18:49:52.648Z,46.80
2018-03-25T18:52:25.948Z,44.63
2018-03-25T18:54:53.347Z,44.03
2018-03-25T18:57:20.742Z,46.20
2018-03-25T18:59:48.130Z,45.40
2018-03-25T19:02:15.832Z,45.83
2018-03-25T19:04:43.241Z,45.20
2018-03-25T19:07:10.600Z,49.30
2018-03-25T19:09:37.997Z,45.93
2018-03-25T19:12:05.381Z,46.10
2018-03-25T19:14:32.781Z,48.23
2018-03-25T19:17:00.164Z,50.87
2018-03-25T19:19:27.553Z,48.07
2018-03-25T19:21:54.937Z,55.90
2018-03-25T19:24:22.372Z,50.60
2018-03-25T19:26:49.720Z,48.73
2018-03-25T19:29:17.108Z,51.10
2018-03-25T19:31:44.500Z,49.43
2018-03-25T19:34:11.894Z,47.10
2018-03-25T19:36:39.289Z,50.67
2018-03-25T19:39:06.664Z,47.97
2018-03-25T19:41:34.069Z,53.47
2018-03-25T19:44:01.461Z,48.80
2018-03-25T19:46:28.845Z,50.53
2018-03-25T19:48:56.233Z,48.10
2018-03-25T19:51:23.608Z,48.37
2018-03-25T19:53:51.000Z,50.00
2018-03-25T19:56:18.384Z,47.67
2018-03-25T19:58:46.100Z,50.40
2018-03-25T20:01:13.485Z,46.97
2018-03-25T20:03:41.134Z,46.27
2018-03-25T20:06:08.471Z,50.13
2018-03-25T20:08:35.849Z,48.77
2018-03-25T20:11:03.249Z,46.73
2018-03-25T20:13:30.674Z,49.60
2018-03-25T20:15:58.064Z,49.63
2018-03-25T20:18:25.460Z,49.30
2018-03-25T20:20:52.848Z,47.53
2018-03-25T20:23:20.241Z,50.97
2018-03-25T20:25:48.604Z,42.90
2018-03-25T20:28:15.996Z,49.70
2018-03-25T20:30:43.381Z,43.90
2018-03-25T20:33:10.789Z,47.60
2018-03-25T20:35:38.181Z,47.60
2018-03-25T20:38:05.561Z,47.70
2018-03-25T20:40:32.949Z,45.03
2018-03-25T20:43:00.334Z,46.20
2018-03-25T20:45:27.725Z,49.63
2018-03-25T20:47:55.111Z,48.20
2018-03-25T20:50:22.496Z,43.17
2018-03-25T20:52:49.875Z,47.00
2018-03-25T20:55:17.260Z,44.03
2018-03-25T20:57:44.664Z,49.50
2018-03-25T21:00:12.051Z,47.53
2018-03-25T21:02:39.477Z,42.60
2018-03-25T21:05:06.832Z,45.60
2018-03-25T21:07:34.248Z,43.33
2018-03-25T21:10:01.674Z,44.10
2018-03-25T21:12:29.046Z,49.70
2018-03-25T21:14:56.437Z,41.10
2018-03-25T21:17:23.841Z,43.87
2018-03-25T21:19:51.217Z,43.63
2018-03-25T21:22:18.608Z,44.37
2018-03-25T21:24:46.005Z,50.20
2018-03-25T21:27:13.393Z,47.77
2018-03-25T21:29:40.774Z,48.93
2018-03-25T21:32:08.156Z,45.00
2018-03-25T21:34:35.544Z,43.67
2018-03-25T21:37:02.938Z,46.67
2018-03-25T21:39:30.317Z,45.70
2018-03-25T21:41:57.724Z,48.27
2018-03-25T21:44:25.105Z,46.67
2018-03-25T21:46:52.505Z,46.90
2018-03-25T21:49:19.874Z,49.33
2018-03-25T21:51:47.339Z,45.80
2018-03-25T21:54:14.698Z,47.77
2018-03-25T21:56:42.068Z,48.43
2018-03-25T21:59:09.476Z,41.93
2018-03-25T22:01:36.865Z,47.90
2018-03-25T22:04:04.244Z,51.50
2018-03-25T22:06:31.628Z,47.67
2018-03-25T22:08:59.012Z,50.10
2018-03-25T22:11:26.405Z,50.23
2018-03-25T22:13:53.789Z,45.40
2018-03-25T22:16:21.189Z,47.63
2018-03-25T22:18:59.361Z,48.90
2018-03-25T22:21:26.804Z,44.90
2018-03-25T22:23:54.189Z,43.80
2018-03-25T22:26:21.577Z,47.50
2018-03-25T22:28:48.957Z,47.93
2018-03-25T22:31:16.352Z,43.57
2018-03-25T22:33:43.744Z,44.87
2018-03-25T22:36:11.128Z,44.10
2018-03-25T22:38:38.541Z,46.00
2018-03-25T22:41:05.925Z,44.10
2018-03-25T22:43:33.304Z,49.00
2018-03-25T22:46:00.693Z,49.10
2018-03-25T22:48:28.072Z,47.07
2018-03-25T22:50:55.460Z,45.50
2018-03-25T22:53:22.849Z,43.47
2018-03-25T22:55:50.248Z,46.63
2018-03-25T22:58:17.632Z,49.90
2018-03-25T23:00:45.012Z,48.97
2018-03-25T23:03:12.410Z,45.73
2018-03-25T23:05:39.792Z,45.67
2018-03-25T23:08:07.185Z,50.10
2018-03-25T23:10:34.575Z,45.27
2018-03-25T23:13:02.321Z,45.93
2018-03-25T23:15:29.705Z,46.57
2018-03-25T23:17:57.088Z,49.30
2018-03-25T23:20:24.478Z,47.93
2018-03-25T23:22:51.872Z,49.33
2018-03-25T23:25:19.260Z,45.20
2018-03-25T23:27:46.645Z,45.63
2018-03-25T23:30:16.097Z,48.47
2018-03-25T23:32:43.470Z,44.03
2018-03-25T23:35:10.857Z,50.10
2018-03-25T23:37:38.232Z,49.70
2018-03-25T23:40:05.619Z,51.20
2018-03-25T23:42:33.006Z,44.50
2018-03-25T23:45:00.389Z,49.03
2018-03-25T23:47:27.780Z,46.37
2018-03-25T23:49:55.162Z,49.00
2018-03-25T23:52:22.537Z,48.20
2018-03-25T23:54:49.924Z,47.20
2018-03-25T23:57:17.304Z,46.70
2018-03-25T23:59:44.681Z,47.90
